createdAt,value
2018-07-24T00:00:04.276Z,4.50
2018-07-24T00:02:33.152Z,2.92
2018-07-24T00:05:02.060Z,3.65
2018-07-24T00:07:30.963Z,4.30
2018-07-24T00:10:01.605Z,3.30
2018-07-24T00:12:30.611Z,5.75
2018-07-24T00:14:59.541Z,5.17
2018-07-24T00:17:28.432Z,5.40
2018-07-24T00:19:57.333Z,4.50
2018-07-24T00:22:26.251Z,7.28
2018-07-24T00:24:55.180Z,8.93
2018-07-24T00:27:24.102Z,7.17
2018-07-24T00:29:53.024Z,8.13
2018-07-24T00:32:22.035Z,6.83
2018-07-24T00:34:50.953Z,5.35
2018-07-24T00:37:20.013Z,4.72
2018-07-24T00:39:48.964Z,4.22
2018-07-24T00:42:18.007Z,4.42
2018-07-24T00:44:46.999Z,3.10
2018-07-24T00:47:15.977Z,6.27
2018-07-24T00:49:44.849Z,4.45
2018-07-24T00:52:13.835Z,4.80
2018-07-24T00:54:42.724Z,3.95
2018-07-24T00:57:11.729Z,4.42
2018-07-24T00:59:40.612Z,3.20
2018-07-24T01:02:09.647Z,4.10
2018-07-24T01:04:38.548Z,5.25
2018-07-24T01:07:07.736Z,4.12
2018-07-24T01:09:36.677Z,3.12
2018-07-24T01:12:05.540Z,5.83
2018-07-24T01:14:34.440Z,6.72
2018-07-24T01:17:03.292Z,7.97
2018-07-24T01:19:32.184Z,5.27
2018-07-24T01:22:01.058Z,4.05
2018-07-24T01:24:29.972Z,3.83
2018-07-24T01:26:58.805Z,4.03
2018-07-24T01:29:27.728Z,4.10
2018-07-24T01:31:56.591Z,3.00
2018-07-24T01:34:25.584Z,3.65
2018-07-24T01:36:54.521Z,2.98
2018-07-24T01:39:23.480Z,6.10
2018-07-24T01:41:52.376Z,3.40
2018-07-24T01:44:21.331Z,3.87
2018-07-24T01:46:50.213Z,3.77
2018-07-24T01:49:19.140Z,4.08
2018-07-24T01:51:48.110Z,3.33
2018-07-24T01:54:17.085Z,3.20
2018-07-24T01:56:45.974Z,4.67
2018-07-24T01:59:14.908Z,3.27
2018-07-24T02:01:43.806Z,3.93
2018-07-24T02:04:12.878Z,3.45
2018-07-24T02:06:41.781Z,3.40
2018-07-24T02:09:11.516Z,3.17
2018-07-24T02:11:40.709Z,3.72
2018-07-24T02:14:09.830Z,3.65
2018-07-24T02:16:38.724Z,3.27
2018-07-24T02:19:07.628Z,3.90
2018-07-24T02:21:37.463Z,3.67
2018-07-24T02:24:06.472Z,3.40
2018-07-24T02:26:35.372Z,3.37
2018-07-24T02:29:04.316Z,3.95
2018-07-24T02:31:33.221Z,4.30
2018-07-24T02:34:02.077Z,3.27
2018-07-24T02:36:31.037Z,3.23
2018-07-24T02:38:59.912Z,3.40
2018-07-24T02:41:28.846Z,4.35
2018-07-24T02:43:57.736Z,3.75
2018-07-24T02:46:26.651Z,3.45
2018-07-24T02:48:55.523Z,3.92
2018-07-24T02:51:24.464Z,4.10
2018-07-24T02:53:53.500Z,4.42
2018-07-24T02:56:22.484Z,3.22
2018-07-24T02:58:51.413Z,3.00
2018-07-24T03:01:20.374Z,3.60
2018-07-24T03:03:49.362Z,3.92
2018-07-24T03:06:18.365Z,3.20
2018-07-24T03:08:47.506Z,3.70
2018-07-24T03:11:16.431Z,4.92
2018-07-24T03:13:45.353Z,4.45
2018-07-24T03:16:14.430Z,3.62
2018-07-24T03:18:43.344Z,3.52
2018-07-24T03:21:12.231Z,3.37
2018-07-24T03:23:41.305Z,4.62
2018-07-24T03:26:10.187Z,3.90
2018-07-24T03:28:39.120Z,3.77
2018-07-24T03:31:07.992Z,3.62
2018-07-24T03:33:36.896Z,4.00
2018-07-24T03:36:05.776Z,5.00
2018-07-24T03:38:34.677Z,4.75
2018-07-24T03:41:03.638Z,3.67
2018-07-24T03:43:32.564Z,4.47
2018-07-24T03:46:01.505Z,3.55
2018-07-24T03:48:30.465Z,4.35
2018-07-24T03:50:59.369Z,3.90
2018-07-24T03:53:28.326Z,4.17
2018-07-24T03:55:57.184Z,5.42
2018-07-24T03:58:26.065Z,4.22
2018-07-24T04:00:55.013Z,5.17
2018-07-24T04:03:23.929Z,3.83
2018-07-24T04:05:52.857Z,3.95
2018-07-24T04:08:21.800Z,4.72
2018-07-24T04:10:50.779Z,4.78
2018-07-24T04:13:19.641Z,6.28
2018-07-24T04:15:48.528Z,4.12
2018-07-24T04:18:17.384Z,4.60
2018-07-24T04:20:46.297Z,3.95
2018-07-24T04:23:15.169Z,4.23
2018-07-24T04:25:44.085Z,5.30
2018-07-24T04:28:13.026Z,4.12
2018-07-24T04:30:41.923Z,3.80
2018-07-24T04:33:10.787Z,3.62
2018-07-24T04:35:39.689Z,5.45
2018-07-24T04:38:08.548Z,3.72
2018-07-24T04:40:37.545Z,4.50
2018-07-24T04:43:06.477Z,4.00
2018-07-24T04:45:35.404Z,4.20
2018-07-24T04:48:04.420Z,3.65
2018-07-24T04:50:33.416Z,3.80
2018-07-24T04:53:02.422Z,5.45
2018-07-24T04:55:31.346Z,3.62
2018-07-24T04:58:01.067Z,3.40
2018-07-24T05:00:30.032Z,4.20
2018-07-24T05:02:58.944Z,5.45
2018-07-24T05:05:27.889Z,4.78
2018-07-24T05:07:56.780Z,6.37
2018-07-24T05:10:25.699Z,4.08
2018-07-24T05:12:54.616Z,3.80
2018-07-24T05:15:23.501Z,5.00
2018-07-24T05:17:52.401Z,4.92
2018-07-24T05:20:21.300Z,5.42
2018-07-24T05:22:50.320Z,4.97
2018-07-24T05:25:19.208Z,5.62
2018-07-24T05:27:48.347Z,5.30
2018-07-24T05:30:17.328Z,4.20
2018-07-24T05:32:46.604Z,6.65
2018-07-24T05:35:15.700Z,6.15
2018-07-24T05:37:44.616Z,4.33
2018-07-24T05:40:13.565Z,4.10
2018-07-24T05:42:42.468Z,4.85
2018-07-24T05:45:11.363Z,4.65
2018-07-24T05:47:40.247Z,5.00
2018-07-24T05:50:09.268Z,5.83
2018-07-24T05:52:38.149Z,4.05
2018-07-24T05:55:07.137Z,6.47
2018-07-24T05:57:36.075Z,4.87
2018-07-24T06:00:05.964Z,4.03
2018-07-24T06:02:34.908Z,5.17
2018-07-24T06:05:04.011Z,3.40
2018-07-24T06:07:33.013Z,5.17
2018-07-24T06:10:02.069Z,3.10
2018-07-24T06:12:31.061Z,3.42
2018-07-24T06:15:00.162Z,3.98
2018-07-24T06:17:29.184Z,3.20
2018-07-24T06:19:58.027Z,3.27
2018-07-24T06:22:26.884Z,3.95
2018-07-24T06:24:55.773Z,4.12
2018-07-24T06:27:24.628Z,3.02
2018-07-24T06:29:53.485Z,3.27
2018-07-24T06:32:22.397Z,4.28
2018-07-24T06:34:51.267Z,4.12
2018-07-24T06:37:20.181Z,3.62
2018-07-24T06:39:49.033Z,4.37
2018-07-24T06:42:17.999Z,3.80
2018-07-24T06:44:46.849Z,2.63
2018-07-24T06:47:15.737Z,4.03
2018-07-24T06:49:44.600Z,6.65
2018-07-24T06:52:13.520Z,5.20
2018-07-24T06:54:42.388Z,3.30
2018-07-24T06:57:11.921Z,3.10
2018-07-24T06:59:40.785Z,3.00
2018-07-24T07:02:09.702Z,3.13
2018-07-24T07:04:38.568Z,2.37
2018-07-24T07:07:07.515Z,2.80
2018-07-24T07:09:36.404Z,2.70
2018-07-24T07:12:05.400Z,4.20
2018-07-24T07:14:34.426Z,3.05
2018-07-24T07:17:03.402Z,2.73
2018-07-24T07:19:32.402Z,3.95
2018-07-24T07:22:01.468Z,3.00
2018-07-24T07:24:30.497Z,2.60
2018-07-24T07:26:59.456Z,3.17
2018-07-24T07:29:28.353Z,2.83
2018-07-24T07:31:57.258Z,3.05
2018-07-24T07:34:26.153Z,3.47
2018-07-24T07:36:54.993Z,4.72
2018-07-24T07:39:23.885Z,2.72
2018-07-24T07:41:52.773Z,3.35
2018-07-24T07:44:21.726Z,3.30
2018-07-24T07:46:50.616Z,3.52
2018-07-24T07:49:19.514Z,4.80
2018-07-24T07:51:48.416Z,2.75
2018-07-24T07:54:17.320Z,3.40
2018-07-24T07:56:46.192Z,3.35
2018-07-24T07:59:15.103Z,4.97
2018-07-24T08:01:43.968Z,2.93
2018-07-24T08:04:12.885Z,2.45
2018-07-24T08:06:41.788Z,2.00
2018-07-24T08:09:11.691Z,3.30
2018-07-24T08:11:40.681Z,2.73
2018-07-24T08:14:09.560Z,4.22
2018-07-24T08:16:38.496Z,3.77
2018-07-24T08:19:07.416Z,3.25
2018-07-24T08:21:36.446Z,2.47
2018-07-24T08:24:05.489Z,1.70
2018-07-24T08:26:34.516Z,1.92
2018-07-24T08:29:03.717Z,3.22
2018-07-24T08:31:32.832Z,1.70
2018-07-24T08:34:01.789Z,1.80
2018-07-24T08:36:30.922Z,1.70
2018-07-24T08:38:59.917Z,1.93
2018-07-24T08:41:28.871Z,2.47
2018-07-24T08:43:57.783Z,1.90
2018-07-24T08:46:26.872Z,2.20
2018-07-24T08:48:55.777Z,2.47
2018-07-24T08:51:24.755Z,1.77
2018-07-24T08:53:54.028Z,2.40
2018-07-24T08:56:22.631Z,1.75
2018-07-24T08:58:51.571Z,2.53
2018-07-24T09:01:20.444Z,2.72
2018-07-24T09:03:49.520Z,1.77
2018-07-24T09:06:18.406Z,2.60
2018-07-24T09:08:47.392Z,1.47
2018-07-24T09:11:16.265Z,3.15
2018-07-24T09:13:45.176Z,1.85
2018-07-24T09:16:14.029Z,1.50
2018-07-24T09:18:42.922Z,1.60
2018-07-24T09:21:11.776Z,1.33
2018-07-24T09:23:40.652Z,1.57
2018-07-24T09:26:09.520Z,2.30
2018-07-24T09:28:38.400Z,1.70
2018-07-24T09:31:07.348Z,3.15
2018-07-24T09:33:36.245Z,1.62
2018-07-24T09:36:05.376Z,1.82
2018-07-24T09:38:34.316Z,1.60
2018-07-24T09:41:03.257Z,1.80
2018-07-24T09:43:32.241Z,2.35
2018-07-24T09:46:01.172Z,1.50
2018-07-24T09:48:30.122Z,4.03
2018-07-24T09:50:59.013Z,1.40
2018-07-24T09:53:27.940Z,1.60
2018-07-24T09:55:57.048Z,1.50
2018-07-24T09:58:25.941Z,1.90
2018-07-24T10:01:00.005Z,1.50
2018-07-24T10:03:28.919Z,1.40
2018-07-24T10:05:57.872Z,1.47
2018-07-24T10:08:26.778Z,1.40
2018-07-24T10:10:55.720Z,3.00
2018-07-24T10:13:24.646Z,1.52
2018-07-24T10:15:53.504Z,1.67
2018-07-24T10:18:22.368Z,1.30
2018-07-24T10:20:51.320Z,1.67
2018-07-24T10:23:20.234Z,2.90
2018-07-24T10:25:49.196Z,1.43
2018-07-24T10:28:18.080Z,2.90
2018-07-24T10:30:47.016Z,1.70
2018-07-24T10:33:15.892Z,1.85
2018-07-24T10:35:44.811Z,1.42
2018-07-24T10:38:13.684Z,1.37
2018-07-24T10:40:42.700Z,1.45
2018-07-24T10:43:11.746Z,2.37
2018-07-24T10:45:40.577Z,2.20
2018-07-24T10:48:09.462Z,1.95
2018-07-24T10:50:38.377Z,1.50
2018-07-24T10:53:07.625Z,1.40
2018-07-24T10:55:36.504Z,2.50
2018-07-24T10:58:05.519Z,1.57
2018-07-24T11:00:34.472Z,1.50
2018-07-24T11:03:03.525Z,2.62
2018-07-24T11:05:32.572Z,1.10
2018-07-24T11:08:01.613Z,1.95
2018-07-24T11:10:30.629Z,1.67
2018-07-24T11:12:59.595Z,1.63
2018-07-24T11:15:28.473Z,1.70
2018-07-24T11:17:57.392Z,1.30
2018-07-24T11:20:26.292Z,1.05
2018-07-24T11:22:55.333Z,1.30
2018-07-24T11:25:24.152Z,1.40
2018-07-24T11:27:53.101Z,1.32
2018-07-24T11:30:22.009Z,1.17
2018-07-24T11:32:50.991Z,1.40
2018-07-24T11:35:19.925Z,2.85
2018-07-24T11:37:48.881Z,1.35
2018-07-24T11:40:17.924Z,3.58
2018-07-24T11:42:46.792Z,1.20
2018-07-24T11:45:15.704Z,1.32
2018-07-24T11:47:44.580Z,2.87
2018-07-24T11:50:13.492Z,1.40
2018-07-24T11:52:42.409Z,1.30
2018-07-24T11:55:11.406Z,2.15
2018-07-24T11:57:40.330Z,2.22
2018-07-24T12:00:09.273Z,2.20
2018-07-24T12:02:38.132Z,2.40
2018-07-24T12:05:07.184Z,1.07
2018-07-24T12:07:36.085Z,2.08
2018-07-24T12:10:05.540Z,1.20
2018-07-24T12:12:34.497Z,1.50
2018-07-24T12:15:03.475Z,2.25
2018-07-24T12:17:32.361Z,1.70
2018-07-24T12:20:01.260Z,1.90
2018-07-24T12:22:30.187Z,1.40
2018-07-24T12:24:59.152Z,1.20
2018-07-24T12:27:28.077Z,1.10
2018-07-24T12:29:57.057Z,1.50
2018-07-24T12:32:26.025Z,2.20
2018-07-24T12:34:55.042Z,1.10
2018-07-24T12:37:24.051Z,2.70
2018-07-24T12:39:53.036Z,1.30
2018-07-24T12:42:22.077Z,2.87
2018-07-24T12:44:51.040Z,1.50
2018-07-24T12:47:20.108Z,1.07
2018-07-24T12:49:49.089Z,2.12
2018-07-24T12:52:18.083Z,2.00
2018-07-24T12:54:47.145Z,2.20
2018-07-24T12:57:16.226Z,2.20
2018-07-24T12:59:45.198Z,1.80
2018-07-24T13:02:14.196Z,2.05
2018-07-24T13:04:43.218Z,1.52
2018-07-24T13:07:12.167Z,0.90
2018-07-24T13:09:41.166Z,1.90
2018-07-24T13:12:10.230Z,1.30
2018-07-24T13:14:39.239Z,2.55
2018-07-24T13:17:08.273Z,1.20
2018-07-24T13:19:37.335Z,1.00
2018-07-24T13:22:06.409Z,1.50
2018-07-24T13:24:35.451Z,0.90
2018-07-24T13:27:04.588Z,1.12
2018-07-24T13:29:33.565Z,1.02
2018-07-24T13:32:02.714Z,1.83
2018-07-24T13:34:31.641Z,1.20
2018-07-24T13:37:00.645Z,1.00
2018-07-24T13:39:29.727Z,1.10
2018-07-24T13:41:58.758Z,1.52
2018-07-24T13:44:27.823Z,1.98
2018-07-24T13:46:56.848Z,1.35
2018-07-24T13:49:25.884Z,1.42
2018-07-24T13:51:54.940Z,1.43
2018-07-24T13:54:23.919Z,0.88
2018-07-24T13:56:52.900Z,1.33
2018-07-24T13:59:21.864Z,0.90
2018-07-24T14:01:50.765Z,0.90
2018-07-24T14:04:19.750Z,1.65
2018-07-24T14:06:48.750Z,1.00
2018-07-24T14:09:17.753Z,1.30
2018-07-24T14:11:46.659Z,1.80
2018-07-24T14:14:15.693Z,0.70
2018-07-24T14:16:44.577Z,0.82
2018-07-24T14:19:13.485Z,1.85
2018-07-24T14:21:42.420Z,1.50
2018-07-24T14:24:11.503Z,1.40
2018-07-24T14:26:40.415Z,1.02
2018-07-24T14:29:09.349Z,1.02
2018-07-24T14:31:38.260Z,0.90
2018-07-24T14:34:07.244Z,1.20
2018-07-24T14:36:36.141Z,0.80
2018-07-24T14:39:08.299Z,1.92
2018-07-24T14:41:37.232Z,2.52
2018-07-24T14:44:06.228Z,0.90
2018-07-24T14:46:35.211Z,0.80
2018-07-24T14:49:04.156Z,0.85
2018-07-24T14:51:33.112Z,1.20
2018-07-24T14:54:01.972Z,0.75
2018-07-24T14:56:30.936Z,0.60
2018-07-24T14:58:59.872Z,1.15
2018-07-24T15:01:28.765Z,1.57
2018-07-24T15:03:57.674Z,1.40
2018-07-24T15:06:26.851Z,0.90
2018-07-24T15:08:55.821Z,0.93
2018-07-24T15:11:24.818Z,1.83
2018-07-24T15:13:53.720Z,1.10
2018-07-24T15:16:22.658Z,1.10
2018-07-24T15:18:51.548Z,2.20
2018-07-24T15:21:20.607Z,0.88
2018-07-24T15:23:49.532Z,1.17
2018-07-24T15:26:18.510Z,1.40
2018-07-24T15:28:47.468Z,1.32
2018-07-24T15:31:16.776Z,1.05
2018-07-24T15:33:45.731Z,1.27
2018-07-24T15:36:14.640Z,1.70
2018-07-24T15:38:43.529Z,1.05
2018-07-24T15:41:12.473Z,0.80
2018-07-24T15:43:41.408Z,0.78
2018-07-24T15:46:10.324Z,0.77
2018-07-24T15:48:39.332Z,1.32
2018-07-24T15:51:08.220Z,0.80
2018-07-24T15:53:37.168Z,1.22
2018-07-24T15:56:06.140Z,1.02
2018-07-24T15:58:35.162Z,1.10
2018-07-24T16:01:04.129Z,1.10
2018-07-24T16:03:33.052Z,1.30
2018-07-24T16:06:01.983Z,0.72
2018-07-24T16:08:30.908Z,1.65
2018-07-24T16:10:59.869Z,0.80
2018-07-24T16:13:28.780Z,2.17
2018-07-24T16:15:57.795Z,1.40
2018-07-24T16:18:26.656Z,0.80
2018-07-24T16:20:55.542Z,0.95
2018-07-24T16:23:24.484Z,0.85
2018-07-24T16:25:53.356Z,1.10
2018-07-24T16:28:22.273Z,0.65
2018-07-24T16:30:51.228Z,1.00
2018-07-24T16:33:20.240Z,0.80
2018-07-24T16:35:49.227Z,1.20
2018-07-24T16:38:18.173Z,2.08
2018-07-24T16:40:47.118Z,2.02
2018-07-24T16:43:16.052Z,1.00
2018-07-24T16:45:45.012Z,0.82
2018-07-24T16:48:13.938Z,0.85
2018-07-24T16:50:42.873Z,2.00
2018-07-24T16:53:11.786Z,1.00
2018-07-24T16:55:40.845Z,0.90
2018-07-24T16:58:09.725Z,1.10
2018-07-24T17:00:38.636Z,1.30
2018-07-24T17:03:07.551Z,2.00
2018-07-24T17:05:36.456Z,1.30
2018-07-24T17:08:05.356Z,1.42
2018-07-24T17:10:34.297Z,0.80
2018-07-24T17:13:03.207Z,0.73
2018-07-24T17:15:32.162Z,1.10
2018-07-24T17:18:01.103Z,0.80
2018-07-24T17:20:30.008Z,0.80
2018-07-24T17:22:58.951Z,0.85
2018-07-24T17:25:27.864Z,1.05
2018-07-24T17:27:56.767Z,1.10
2018-07-24T17:30:25.672Z,1.90
2018-07-24T17:32:54.612Z,2.17
2018-07-24T17:35:23.553Z,1.50
2018-07-24T17:37:52.488Z,1.35
2018-07-24T17:40:21.453Z,0.80
2018-07-24T17:42:50.391Z,1.87
2018-07-24T17:45:19.299Z,1.57
2018-07-24T17:47:48.251Z,1.20
2018-07-24T17:50:17.142Z,2.40
2018-07-24T17:52:46.060Z,0.82
2018-07-24T17:55:14.928Z,0.80
2018-07-24T17:57:43.828Z,1.70
2018-07-24T18:00:12.760Z,0.98
2018-07-24T18:02:41.668Z,1.15
2018-07-24T18:05:10.591Z,1.37
2018-07-24T18:07:39.517Z,1.05
2018-07-24T18:10:08.478Z,1.40
2018-07-24T18:12:37.453Z,1.67
2018-07-24T18:15:06.420Z,1.05
2018-07-24T18:17:35.345Z,0.80
2018-07-24T18:20:04.695Z,1.10
2018-07-24T18:22:33.656Z,1.57
2018-07-24T18:25:02.577Z,2.50
2018-07-24T18:27:31.453Z,2.70
2018-07-24T18:30:00.408Z,0.90
2018-07-24T18:32:29.296Z,1.07
2018-07-24T18:34:58.233Z,1.22
2018-07-24T18:37:27.108Z,1.00
2018-07-24T18:39:56.036Z,1.22
2018-07-24T18:42:24.949Z,4.10
2018-07-24T18:44:53.860Z,1.50
2018-07-24T18:47:22.780Z,2.25
2018-07-24T18:49:51.717Z,3.70
2018-07-24T18:52:20.652Z,1.60
2018-07-24T18:54:49.623Z,1.60
2018-07-24T18:57:18.500Z,3.58
2018-07-24T18:59:47.451Z,3.47
2018-07-24T19:02:16.354Z,4.62
2018-07-24T19:04:45.268Z,4.37
2018-07-24T19:07:14.177Z,3.83
2018-07-24T19:09:43.104Z,1.83
2018-07-24T19:12:12.044Z,2.12
2018-07-24T19:14:40.931Z,3.10
2018-07-24T19:17:09.873Z,1.70
2018-07-24T19:19:38.804Z,2.50
2018-07-24T19:22:07.744Z,2.67
2018-07-24T19:24:36.656Z,2.30
2018-07-24T19:27:05.588Z,2.30
2018-07-24T19:29:34.499Z,1.70
2018-07-24T19:32:03.562Z,1.80
2018-07-24T19:34:32.444Z,3.08
2018-07-24T19:37:01.365Z,2.87
2018-07-24T19:39:30.228Z,2.77
2018-07-24T19:41:59.144Z,1.72
2018-07-24T19:44:28.013Z,5.75
2018-07-24T19:46:56.908Z,4.80
2018-07-24T19:49:25.883Z,3.47
2018-07-24T19:51:54.809Z,4.03
2018-07-24T19:54:23.733Z,3.47
2018-07-24T19:56:52.641Z,3.52
2018-07-24T19:59:21.568Z,1.75
2018-07-24T20:01:50.468Z,3.97
2018-07-24T20:04:19.372Z,1.77
2018-07-24T20:06:48.256Z,3.13
2018-07-24T20:09:17.209Z,2.80
2018-07-24T20:11:46.081Z,4.20
2018-07-24T20:14:15.021Z,2.80
2018-07-24T20:16:43.896Z,4.80
2018-07-24T20:19:12.841Z,6.08
2018-07-24T20:21:41.721Z,4.10
2018-07-24T20:24:10.642Z,3.47
2018-07-24T20:26:39.561Z,2.90
2018-07-24T20:29:08.512Z,4.78
2018-07-24T20:31:37.435Z,2.47
2018-07-24T20:34:06.409Z,3.47
2018-07-24T20:36:35.385Z,4.00
2018-07-24T20:39:06.549Z,3.58
2018-07-24T20:41:35.608Z,3.85
2018-07-24T20:44:04.660Z,4.45
2018-07-24T20:46:33.596Z,4.87
2018-07-24T20:49:02.740Z,4.87
2018-07-24T20:51:31.669Z,4.03
2018-07-24T20:54:00.575Z,2.10
2018-07-24T20:56:29.621Z,3.22
2018-07-24T20:58:58.536Z,3.58
2018-07-24T21:01:27.456Z,3.42
2018-07-24T21:03:56.331Z,3.72
2018-07-24T21:06:25.242Z,2.27
2018-07-24T21:08:54.156Z,4.40
2018-07-24T21:11:23.063Z,3.95
2018-07-24T21:13:51.931Z,3.62
2018-07-24T21:16:20.890Z,4.12
2018-07-24T21:18:50.260Z,3.62
2018-07-24T21:21:19.168Z,2.08
2018-07-24T21:23:48.048Z,2.10
2018-07-24T21:26:16.973Z,5.15
2018-07-24T21:28:45.879Z,4.28
2018-07-24T21:31:14.826Z,4.00
2018-07-24T21:33:43.700Z,4.78
2018-07-24T21:36:12.636Z,4.95
2018-07-24T21:38:41.541Z,3.07
2018-07-24T21:41:10.424Z,6.83
2018-07-24T21:43:39.357Z,2.72
2018-07-24T21:46:08.364Z,5.25
2018-07-24T21:48:37.288Z,4.53
2018-07-24T21:51:06.200Z,5.58
2018-07-24T21:53:35.389Z,2.58
2018-07-24T21:56:04.315Z,4.60
2018-07-24T21:58:33.252Z,5.10
2018-07-24T22:01:07.384Z,4.73
2018-07-24T22:03:36.277Z,3.98
2018-07-24T22:06:05.200Z,3.62
2018-07-24T22:08:34.316Z,3.80
2018-07-24T22:11:03.211Z,4.70
2018-07-24T22:13:32.108Z,5.55
2018-07-24T22:16:00.985Z,4.30
2018-07-24T22:18:29.884Z,2.30
2018-07-24T22:20:58.762Z,2.35
2018-07-24T22:23:27.693Z,3.27
2018-07-24T22:25:56.579Z,2.70
2018-07-24T22:28:25.460Z,5.33
2018-07-24T22:30:54.336Z,4.80
2018-07-24T22:33:23.277Z,2.77
2018-07-24T22:35:52.153Z,3.72
2018-07-24T22:38:21.051Z,3.12
2018-07-24T22:40:49.912Z,4.40
2018-07-24T22:43:18.828Z,3.70
2018-07-24T22:45:47.678Z,3.42
2018-07-24T22:48:16.581Z,4.17
2018-07-24T22:50:45.468Z,1.95
2018-07-24T22:53:14.376Z,3.60
2018-07-24T22:55:43.255Z,2.73
2018-07-24T22:58:12.181Z,3.77
2018-07-24T23:00:41.058Z,5.95
2018-07-24T23:03:09.945Z,3.35
2018-07-24T23:05:38.803Z,4.25
2018-07-24T23:08:07.704Z,4.75
2018-07-24T23:10:36.725Z,2.70
2018-07-24T23:13:05.753Z,5.58
2018-07-24T23:15:34.684Z,2.20
2018-07-24T23:18:03.568Z,6.60
2018-07-24T23:20:32.453Z,4.60
2018-07-24T23:23:01.364Z,1.80
2018-07-24T23:25:30.344Z,2.53
2018-07-24T23:27:59.300Z,4.15
2018-07-24T23:30:28.252Z,4.30
2018-07-24T23:32:57.234Z,3.00
2018-07-24T23:35:26.219Z,4.33
2018-07-24T23:37:55.266Z,5.42
2018-07-24T23:40:24.253Z,2.77
2018-07-24T23:42:53.200Z,4.40
2018-07-24T23:45:22.240Z,3.37
2018-07-24T23:47:51.774Z,1.70
2018-07-24T23:50:20.769Z,2.17
2018-07-24T23:52:49.728Z,3.12
2018-07-24T23:55:18.704Z,2.62
2018-07-24T23:57:47.560Z,2.12
